Flight Track Log - Related Links

Times and Time Zones

All times are in EDT time to prevent confusion due to time zone crossing. See the UAL326 flight status page for this flight to view local times or setup timezone preferences in your user account.

Time Position Orientation Groundspeed Altitude Reporting Facility
EDT Latitude Longitude Course Direction KTS MPH feet Rate Location/Type
Mon 02:08:05 PM 28.4500 -81.3167 360° North 145 167 700  Level Orlando TRACON
Mon 02:08:30 PM 28.4667 -81.3167 360° North 151 174 1,700 1,976 Climbing Orlando TRACON
Mon 02:09:30 PM 28.5000 -81.3167 360° North 155 178 3,500 1,550 Climbing Orlando TRACON
Mon 02:10:30 PM 28.5667 -81.3000 12° North 249 287 4,800 2,143 Climbing Orlando TRACON
Mon 02:12:04 PM 28.6703 -81.3192 351° North 280 322 9,000 2,431 Climbing Jacksonville Center
Mon 02:13:03 PM 28.7519 -81.3319 352° North 287 330 11,000 1,513 Climbing Jacksonville Center
Mon 02:14:03 PM 28.8522 -81.3494 351° North 321 369 12,000 1,736 Climbing Jacksonville Center
Mon 02:15:04 PM 28.9611 -81.3667 352° North 365 420 14,500 2,083 Climbing Jacksonville Center
Mon 02:16:04 PM 29.0697 -81.3864 351° North 390 449 16,200 1,714 Climbing Jacksonville Center
Mon 02:17:03 PM 29.1847 -81.3964 356° North 403 464 17,900 1,600 Climbing Jacksonville Center
Mon 02:18:04 PM 29.3039 -81.4089 355° North 420 483 19,400 1,587 Climbing Jacksonville Center
Mon 02:19:04 PM 29.4272 -81.4189 356° North 431 496 21,100 1,600 Climbing Jacksonville Center
Mon 02:20:04 PM 29.5525 -81.4361 353° North 441 507 22,600 1,300 Climbing Jacksonville Center
Mon 02:21:04 PM 29.6906 -81.4486 356° North 447 514 23,700 1,750 Climbing Jacksonville Center
Mon 02:22:04 PM 29.8056 -81.4589 356° North 447 514 26,100 5,650 Climbing Jacksonville Center
Mon 02:23:04 PM 29.9308 -81.4714 355° North 447 514 35,000 1,650 Climbing Jacksonville Center
Mon 02:24:04 PM 30.0542 -81.4817 356° North 442 509 29,400 -2,250 Descending Jacksonville Center
Mon 02:25:04 PM 30.1753 -81.4942 355° North 442 509 30,500 1,300 Climbing Jacksonville Center
Mon 02:26:04 PM 30.2986 -81.5067 355° North 442 509 32,000 1,800 Climbing Jacksonville Center
Mon 02:27:04 PM 30.4197 -81.5025 North 442 509 34,100 1,500 Climbing Jacksonville Center
Mon 02:28:04 PM 30.5533 -81.4933 North 442 509 35,000 454 Climbing Jacksonville Center
Mon 02:29:03 PM 30.6783 -81.4819 North 442 509 35,000  Level Jacksonville Center
Mon 02:30:04 PM 30.8056 -81.4728 North 442 509 35,000  Level Jacksonville Center
Mon 02:31:04 PM 30.9328 -81.4636 North 447 514 35,000  Level Jacksonville Center
Mon 02:32:04 PM 31.0603 -81.4544 North 452 520 35,000  Level Jacksonville Center
Mon 02:33:04 PM 31.1875 -81.4428 North 445 512 35,000  Level Jacksonville Center
Mon 02:34:04 PM 31.3167 -81.4239 North 460 529 35,000  Level Jacksonville Center
Mon 02:35:04 PM 31.4289 -81.3903 14° North 467 537 35,000  Level Jacksonville Center
Mon 02:36:04 PM 31.5683 -81.3539 13° North 467 537 35,000  Level Jacksonville Center
Mon 02:37:04 PM 31.6975 -81.3200 13° North 466 536 35,000  Level Jacksonville Center
Mon 02:38:04 PM 31.8097 -81.2889 13° North 466 536 35,000 -50 Level Jacksonville Center
Mon 02:39:04 PM 31.9431 -81.2522 13° North 473 544 34,900 -50 Descending Jacksonville Center
Mon 02:40:04 PM 32.0522 -81.1497 39° Northeast 473 544 34,900 50 Level Jacksonville Center
Mon 02:41:04 PM 32.1628 -81.0006 49° Northeast 513 590 35,000 50 Climbing Jacksonville Center
Mon 02:42:04 PM 32.2592 -80.8781 47° Northeast 508 585 35,000  Level Jacksonville Center
Mon 02:43:04 PM 32.3469 -80.7656 47° Northeast 514 592 35,000 -50 Level Jacksonville Center
Mon 02:44:04 PM 32.4428 -80.6378 48° Northeast 514 592 34,900 -50 Descending Jacksonville Center
Mon 02:45:04 PM 32.5408 -80.5097 48° Northeast 514 592 34,900  Level Jacksonville Center
Mon 02:46:04 PM 32.6344 -80.3839 49° Northeast 514 592 34,900  Level Jacksonville Center
Mon 02:47:04 PM 32.7339 -80.2528 48° Northeast 514 592 34,900 50 Level Jacksonville Center
Mon 02:48:04 PM 32.8417 -80.1136 47° Northeast 514 592 35,000 50 Climbing Jacksonville Center
Mon 02:49:04 PM 32.9561 -80.0083 38° Northeast 514 592 35,000  Level Jacksonville Center
Mon 02:50:04 PM 33.0817 -79.9325 27° Northeast 506 582 35,000  Level Jacksonville Center
Mon 02:51:04 PM 33.2094 -79.8614 25° Northeast 494 568 35,000  Level Jacksonville Center
Mon 02:52:04 PM 33.3331 -79.7950 24° Northeast 494 568 35,000 -50 Level Jacksonville Center
Mon 02:53:04 PM 33.4586 -79.7258 25° Northeast 494 568 34,900 -50 Descending Jacksonville Center
Mon 02:54:04 PM 33.5842 -79.6517 26° Northeast 494 568 34,900 50 Level Jacksonville Center
Mon 02:55:04 PM 33.7117 -79.5844 24° Northeast 494 568 35,000 50 Climbing Jacksonville Center
Mon 02:56:03 PM 33.8350 -79.5122 26° Northeast 499 574 35,000 -36 Level Jacksonville Center
Mon 02:57:49 PM 34.0297 -79.4056 24° Northeast 481 554 34,900 -37 Descending Washington Center
Mon 02:58:47 PM 34.1572 -79.3311 26° Northeast 481 554 34,900 50 Level Washington Center
Mon 02:59:48 PM 34.2931 -79.2544 25° Northeast 486 559 35,000 50 Climbing Washington Center
Mon 03:00:48 PM 34.4183 -79.1819 26° Northeast 486 559 35,000  Level Washington Center
Mon 03:01:49 PM 34.5417 -79.1092 26° Northeast 491 565 35,000  Level Washington Center
Mon 03:02:49 PM 34.6667 -79.0389 25° Northeast 491 565 35,000  Level Washington Center
Mon 03:03:50 PM 34.7897 -78.9681 25° Northeast 491 565 35,000  Level Washington Center
Mon 03:04:48 PM 34.9150 -78.8950 26° Northeast 491 565 35,000  Level Washington Center
Mon 03:05:48 PM 35.0400 -78.8214 26° Northeast 491 565 35,000  Level Washington Center
Mon 03:06:48 PM 35.1650 -78.7475 26° Northeast 491 565 35,000  Level Washington Center
Mon 03:07:49 PM 35.2939 -78.6917 19° North 491 565 35,000  Level Washington Center
Mon 03:08:50 PM 35.4264 -78.6483 15° North 483 556 35,000 -407 Level Washington Center
Mon 03:09:47 PM 35.5444 -78.6042 17° North 483 556 34,200 -1,068 Descending Washington Center
Mon 03:10:48 PM 35.6769 -78.5556 17° North 483 556 32,900 -1,388 Descending Washington Center
Mon 03:11:48 PM 35.7992 -78.5064 18° North 477 549 31,400 -1,488 Descending Washington Center
Mon 03:12:49 PM 35.9256 -78.4572 17° North 477 549 29,900 -1,488 Descending Washington Center
Mon 03:13:49 PM 36.0583 -78.4081 17° North 477 549 28,400 -1,388 Descending Washington Center
Mon 03:14:50 PM 36.1825 -78.3608 17° North 477 549 27,100 -706 Descending Washington Center
Mon 03:15:48 PM 36.3067 -78.3111 18° North 477 549 27,000 -50 Descending Washington Center
Mon 03:16:49 PM 36.4331 -78.2614 18° North 472 543 27,000  Level Washington Center
Mon 03:17:50 PM 36.5572 -78.2139 17° North 467 537 27,000  Level Washington Center
Mon 03:18:48 PM 36.6919 -78.1536 20° North 475 547 27,000  Level Washington Center
Mon 03:19:48 PM 36.8228 -78.0906 21° North 494 568 27,000 -298 Level Washington Center
Mon 03:20:49 PM 36.9575 -78.0275 21° North 499 574 26,400 -942 Descending Washington Center
Mon 03:21:49 PM 37.0858 -77.9689 20° North 499 574 25,100 -1,884 Descending Washington Center
Mon 03:22:50 PM 37.2081 -77.9100 21° North 482 555 22,600 -1,563 Descending Washington Center
Mon 03:23:48 PM 37.3281 -77.8536 20° North 468 539 22,000 -305 Descending Washington Center
Mon 03:24:48 PM 37.4481 -77.7969 21° North 458 527 22,000 -397 Level Washington Center
Mon 03:25:49 PM 37.5681 -77.7378 21° North 458 527 21,200 -2,115 Descending Washington Center
Mon 03:26:50 PM 37.6817 -77.6831 21° North 452 520 17,700 -3,227 Descending Washington Center
Mon 03:27:48 PM 37.7889 -77.6336 20° North 433 498 14,800 -2,672 Descending Washington Center
Mon 03:28:49 PM 37.8875 -77.5889 20° North 400 460 12,400 -2,164 Descending Washington Center
Mon 03:29:50 PM 37.9739 -77.5436 22° Northeast 359 413 10,400 -1,180 Descending Washington Center
Mon 03:30:51 PM 38.0683 -77.5039 18° North 327 376 10,000 -203 Descending Washington Center
Mon 03:31:48 PM 38.1461 -77.4664 21° North 310 357 10,000  Level Washington Center
Mon 03:32:49 PM 38.2175 -77.4311 21° North 286 329 10,000 -545 Level Washington Center
Mon 03:33:49 PM 38.2925 -77.4331 359° North 266 306 8,900 -1,240 Descending Washington Center
Mon 03:34:50 PM 38.3656 -77.4400 356° North 260 299 7,500 -958 Descending Washington Center
Mon 03:35:48 PM 38.4383 -77.4444 357° North 260 299 7,000 -504 Descending Washington Center
Mon 03:36:49 PM 38.5028 -77.4514 355° North 247 284 6,500 -443 Descending Washington Center
Mon 03:37:50 PM 38.5569 -77.4556 357° North 217 250 6,100 -397 Descending Washington Center
Mon 03:38:50 PM 38.6069 -77.4594 357° North 195 224 5,700 -763 Descending Washington Center
Mon 03:39:48 PM 38.6569 -77.4633 357° North 181 208 4,600 -833 Descending Washington Center
Mon 03:40:38 PM 38.7000 -77.4667 357° North 183 211 4,200 -382 Descending Potomac TRACON
Mon 03:41:38 PM 38.7500 -77.4667 360° North 182 209 3,900 -600 Descending Potomac TRACON
Mon 03:42:38 PM 38.8000 -77.4667 360° North 171 197 3,000 -887 Descending Potomac TRACON
Mon 03:43:33 PM 38.8500 -77.4667 360° North 167 192 2,200 -873 Descending Potomac TRACON

Login

Don't have an account? Register now (free) for customized features, flight alerts, and more!